Webcam more information Webcam


avvertimento per Temporali more information blitzortung!


avvertimento per Pioggia more information rain snow radar


altri nostri siti meteo:

RISCHIO INCENDIRischio incendi

Pomeziameteo 1Sito sul meteo

Pomeziameteo DashboardSito sul meteo

Caput FrigorisSito sul meteo

BarcellonameteoSito sul meteo

MeteoipassiSito sul meteo

TortoretometeolidoSito sul meteo

CastelnuovovomanometeoSito sul meteo

MeteogonzagaSito sul meteo

MeteonetworkInvio dai a Meteonetwork



Temporali Da: 25-08-2019 07:00 Fino a: 18:59 Avvertimento per: Temporali Livello: Giallo info button
Pioggia Da: 25-08-2019 07:00 Fino a: 18:59 Avvertimento per: Pioggia Livello: Giallo info button

Report METAR

   
LIRV - Viterbo (it-Mil), Italy
Distanza dalla stazione: W 4 km
Dati ricevuti: 25-08-2019 12:55
Parzialmente nuvoloso  
Parzialmente nuvoloso  
   Vento: Variabile calma
Vento: Variabile calma
Temperatura: 30°C
Indice di Calore: 31°C
P.to Rugiada: 19°C
Umidita: 52%
Barometro: 1018 hPa
Nuvole: Parzialmente nuvoloso
Visibilita: oltre 10 km
dettagli cloud: Parzialmente nuvoloso 853.4 m
LIRV 251055Z /////KT 9999 SCT028 30/19 Q1018
LIQN - Rieti, Italy
Distanza dalla stazione: E 59 km
Dati ricevuti: 25-08-2019 12:50
Parzialmente nuvoloso  
Parzialmente nuvoloso  
   Vento: Variabile 5.6 km/h
Vento: Variabile 5.6 km/h
Temperatura: 29°C
P.to Rugiada: 13°C
Umidita: 37%
Barometro: 1017 hPa
Nuvole: Parzialmente nuvoloso
Visibilita: oltre 10 km
dettagli cloud: Parzialmente nuvoloso 1524 m
LIQN 251050Z VRB03KT 9999 SCT050TCU 29/13 Q1017
LIRU - Rome/Urbe (it-Af, Italy
Distanza dalla stazione: S 61 km
Dati ricevuti: 25-08-2019 12:50
Sereno  
Sereno  
   Vento: Variabile 5.6 km/h
Vento: Variabile 5.6 km/h
Temperatura: 31°C
Indice di Calore: 31°C
P.to Rugiada: 17°C
Umidita: 43%
Barometro: 1016 hPa
Visibilita: oltre 10 km
dettagli cloud: Sereno
LIRU 251050Z VRB03KT 300V070 CAVOK 31/17 Q1016
LIRG - Guidonia (it-Afb, Italy
Distanza dalla stazione: SE 68 km
Dati ricevuti: 23-08-2019 19:55
DATI Obsoleti
Parzialmente nuvoloso  
Parzialmente nuvoloso  
   Vento: NE 14.8 km/h
Vento: NE 14.8 km/h
Temperatura: 25°C
P.to Rugiada: 17°C
Umidita: 61%
Barometro: 1017 hPa
Nuvole: Parzialmente nuvoloso
Visibilita: oltre 10 km
dettagli cloud: Parzialmente nuvoloso 1066.8 m
LIRG 231755Z 06008KT 9999 SCT035 25/17 Q1017
LIRK - Terminillo Mount, Italy
Distanza dalla stazione: E 70 km
Dati ricevuti: 25-08-2019 12:55
  
  
   Vento: Variabile calma
Vento: Variabile calma
LIRK 251055Z AUTO /////KT //// ///// Q////
 

Script sviluppato da  Saratoga-weather.org Adattato per il modello da  Weerstation Leuven

Strumentazione usata:

Stazione meteo
Davis VP2

Programma gestore dati meteo
WVIEW

Server per i dati meteo
WDS-5

Davis VP2

WVIEW

WDS-5